עמוד ראשי
METAR-TAF:

METAR-TAF

שדות תעופה :

Tiree, סקוטלנד

קו רוחב: 56-30N, קו אורך: 006-53W, גובה: 12מטר

תצפית מזג אוויר נוכחית

הדו"ח נערך לפני 10 שעות ו 23דקות, בשעה 13:20 UTC
רוח 14קשר מכיוון צפון
טמפרטורת 12 צלסיוס
לחות 88%
לחץ 1019 hPa
ראות 10 קילומטר או יותר
עננים בינוניים בגובה 900רגל

METAR: EGPU 181320Z 36014KT 9999 BKN009 12/10 Q1019

זמן: 00:43 (23:43 UTC)

תחזית

הדו"ח נערך לפני 9 שעות ו 31דקות, בשעה 14:12 UTC
תחזית בתוקף מ 18 ב 15 UTC עד 18 ב 18 UTC
רוח 12קשר מכיוון צפון
ראות 10 קילומטר או יותר
עננים בינוניים בגובה 1200רגל
זמנית מ -
18 ב 15 UTC עד 18 ב 18 UTC
ראות: 8000מטר
עננים בינוניים בגובה 800רגל
הסתברות 30% :
זמנית מ -
18 ב 15 UTC עד 18 ב 18 UTC
עננים פזורים בגובה 1500רגל

TAF: EGPU 181412Z 1815/1818 35012KT 9999 BKN012 TEMPO 1815/1818 8000 BKN008 PROB30 TEMPO 1815/1818 SCT015

תצפיות ותחזיות מזג אוויר לגבי יותר מ- 4,000 שדות תעופה ברחבי העולם. דוחות METAR ו- TAF.

התחנות הזמינות מסומנות בנקודות צהובות ואדומות על גבי המפה.

העבר את העכבר לנקודה הצבעונית על מנת לראות את שם התחנה.

לאחר מכן, לחץ כדי לראות את תוכן ואת תחזיות מזג האוויר.

כדי לשנות את המפה: לחץ על הכפתורים הירוקים עם הפלוס השחור כדי להתקרב; על הכפתור הירוק עם המקף כדי להתרחק; או בחיצים הירוקים למפות סמוכות.


METAR-TAF: